createdAt,value
2018-06-30T00:01:13.489Z,99651.00
2018-06-30T00:03:48.067Z,99660.00
2018-06-30T00:06:17.533Z,99653.00
2018-06-30T00:08:46.909Z,99655.00
2018-06-30T00:11:16.275Z,99658.00
2018-06-30T00:13:45.680Z,99657.00
2018-06-30T00:16:15.107Z,99657.00
2018-06-30T00:18:44.488Z,99662.00
2018-06-30T00:21:13.934Z,99665.00
2018-06-30T00:23:43.303Z,99655.00
2018-06-30T00:26:12.654Z,99660.00
2018-06-30T00:28:42.047Z,99657.00
2018-06-30T00:31:11.411Z,99660.00
2018-06-30T00:33:40.772Z,99658.00
2018-06-30T00:36:10.109Z,99666.00
2018-06-30T00:38:39.450Z,99664.00
2018-06-30T00:41:08.821Z,99662.00
2018-06-30T00:43:38.206Z,99666.00
2018-06-30T00:46:07.608Z,99656.00
2018-06-30T00:48:37.038Z,99658.00
2018-06-30T00:51:06.736Z,99663.00
2018-06-30T00:53:36.089Z,99660.00
2018-06-30T00:56:05.745Z,99664.00
2018-06-30T00:58:35.212Z,99660.00
2018-06-30T01:01:04.609Z,99668.00
2018-06-30T01:03:33.955Z,99667.00
2018-06-30T01:06:03.340Z,99670.00
2018-06-30T01:08:32.712Z,99678.00
2018-06-30T01:11:02.077Z,99678.00
2018-06-30T01:13:31.420Z,99674.00
2018-06-30T01:16:00.745Z,99675.00
2018-06-30T01:18:30.100Z,99673.00
2018-06-30T01:20:59.470Z,99677.00
2018-06-30T01:23:28.925Z,99676.00
2018-06-30T01:25:58.287Z,99687.00
2018-06-30T01:28:27.638Z,99682.00
2018-06-30T01:30:56.992Z,99688.00
2018-06-30T01:33:26.391Z,99687.00
2018-06-30T01:35:55.741Z,99683.00
2018-06-30T01:38:25.105Z,99681.00
2018-06-30T01:40:54.547Z,99680.00
2018-06-30T01:43:23.960Z,99679.00
2018-06-30T01:45:53.347Z,99680.00
2018-06-30T01:48:22.651Z,99679.00
2018-06-30T01:50:51.730Z,99680.00
2018-06-30T01:53:21.062Z,99684.00
2018-06-30T01:55:50.518Z,99680.00
2018-06-30T01:58:19.921Z,99679.00
2018-06-30T02:00:49.363Z,99678.00
2018-06-30T02:03:18.777Z,99674.00
2018-06-30T02:05:48.173Z,99681.00
2018-06-30T02:08:17.537Z,99677.00
2018-06-30T02:10:46.916Z,99688.00
2018-06-30T02:13:16.265Z,99695.00
2018-06-30T02:15:45.639Z,99699.00
2018-06-30T02:18:15.020Z,99693.00
2018-06-30T02:20:44.457Z,99694.00
2018-06-30T02:23:13.872Z,99695.00
2018-06-30T02:25:43.248Z,99701.00
2018-06-30T02:28:12.592Z,99704.00
2018-06-30T02:30:41.925Z,99708.00
2018-06-30T02:33:11.283Z,99714.00
2018-06-30T02:35:40.629Z,99713.00
2018-06-30T02:38:09.981Z,99710.00
2018-06-30T02:40:39.381Z,99712.00
2018-06-30T02:43:08.773Z,99715.00
2018-06-30T02:45:38.156Z,99713.00
2018-06-30T02:48:07.586Z,99715.00
2018-06-30T02:50:36.965Z,99730.00
2018-06-30T02:53:06.502Z,99721.00
2018-06-30T02:55:35.848Z,99733.00
2018-06-30T02:58:05.292Z,99736.00
2018-06-30T03:00:34.625Z,99734.00
2018-06-30T03:03:03.961Z,99728.00
2018-06-30T03:05:33.288Z,99730.00
2018-06-30T03:08:02.651Z,99728.00
2018-06-30T03:10:32.065Z,99738.00
2018-06-30T03:13:01.384Z,99737.00
2018-06-30T03:15:30.741Z,99736.00
2018-06-30T03:18:00.138Z,99746.00
2018-06-30T03:20:29.742Z,99739.00
2018-06-30T03:22:59.101Z,99749.00
2018-06-30T03:25:28.554Z,99751.00
2018-06-30T03:27:57.917Z,99758.00
2018-06-30T03:30:27.368Z,99756.00
2018-06-30T03:32:56.726Z,99758.00
2018-06-30T03:35:26.120Z,99762.00
2018-06-30T03:37:55.536Z,99758.00
2018-06-30T03:40:24.911Z,99770.00
2018-06-30T03:42:54.330Z,99769.00
2018-06-30T03:45:23.701Z,99779.00
2018-06-30T03:47:53.025Z,99772.00
2018-06-30T03:50:22.419Z,99777.00
2018-06-30T03:52:51.793Z,99780.00
2018-06-30T03:55:21.167Z,99781.00
2018-06-30T03:57:50.534Z,99782.00
2018-06-30T04:00:19.946Z,99773.00
2018-06-30T04:02:49.482Z,99789.00
2018-06-30T04:05:19.040Z,99788.00
2018-06-30T04:07:48.563Z,99790.00
2018-06-30T04:10:17.996Z,99796.00
2018-06-30T04:12:47.478Z,99792.00
2018-06-30T04:15:16.989Z,99799.00
2018-06-30T04:17:46.458Z,99798.00
2018-06-30T04:20:15.946Z,99801.00
2018-06-30T04:22:45.396Z,99804.00
2018-06-30T04:25:14.809Z,99812.00
2018-06-30T04:27:44.251Z,99817.00
2018-06-30T04:30:13.695Z,99811.00
2018-06-30T04:32:43.071Z,99818.00
2018-06-30T04:35:12.461Z,99811.00
2018-06-30T04:37:41.913Z,99820.00
2018-06-30T04:40:11.389Z,99821.00
2018-06-30T04:42:40.879Z,99823.00
2018-06-30T04:45:10.418Z,99824.00
2018-06-30T04:47:39.841Z,99824.00
2018-06-30T04:50:09.418Z,99826.00
2018-06-30T04:52:38.970Z,99830.00
2018-06-30T04:55:08.543Z,99834.00
2018-06-30T04:57:38.089Z,99831.00
2018-06-30T05:00:07.646Z,99840.00
2018-06-30T05:02:43.844Z,99839.00
2018-06-30T05:05:13.340Z,99843.00
2018-06-30T05:07:42.880Z,99844.00
2018-06-30T05:10:12.347Z,99841.00
2018-06-30T05:12:41.828Z,99849.00
2018-06-30T05:15:11.385Z,99851.00
2018-06-30T05:17:40.790Z,99851.00
2018-06-30T05:20:10.264Z,99857.00
2018-06-30T05:22:40.635Z,99858.00
2018-06-30T05:25:10.224Z,99867.00
2018-06-30T05:27:39.779Z,99858.00
2018-06-30T05:30:09.217Z,99875.00
2018-06-30T05:32:38.571Z,99873.00
2018-06-30T05:35:07.978Z,99862.00
2018-06-30T05:37:37.456Z,99864.00
2018-06-30T05:40:07.032Z,99869.00
2018-06-30T05:42:36.496Z,99869.00
2018-06-30T05:45:06.377Z,99879.00
2018-06-30T05:47:35.715Z,99875.00
2018-06-30T05:50:05.467Z,99867.00
2018-06-30T05:52:34.963Z,99872.00
2018-06-30T05:55:04.562Z,99895.00
2018-06-30T05:57:34.018Z,99884.00
2018-06-30T06:00:03.498Z,99881.00
2018-06-30T06:02:32.964Z,99889.00
2018-06-30T06:05:02.484Z,99878.00
2018-06-30T06:07:31.896Z,99875.00
2018-06-30T06:10:01.519Z,99885.00
2018-06-30T06:12:30.909Z,99877.00
2018-06-30T06:15:01.287Z,99883.00
2018-06-30T06:17:30.703Z,99881.00
2018-06-30T06:20:01.751Z,99880.00
2018-06-30T06:22:31.136Z,99880.00
2018-06-30T06:25:00.621Z,99888.00
2018-06-30T06:27:30.030Z,99890.00
2018-06-30T06:30:02.498Z,99881.00
2018-06-30T06:32:32.080Z,99890.00
2018-06-30T06:35:02.440Z,99895.00
2018-06-30T06:37:32.385Z,99891.00
2018-06-30T06:40:01.924Z,99890.00
2018-06-30T06:42:31.647Z,99887.00
2018-06-30T06:45:01.624Z,99889.00
2018-06-30T06:47:33.430Z,99912.00
2018-06-30T06:50:02.788Z,99898.00
2018-06-30T06:52:32.283Z,99897.00
2018-06-30T06:55:01.802Z,99896.00
2018-06-30T06:57:31.282Z,99895.00
2018-06-30T07:00:00.671Z,99903.00
2018-06-30T07:02:30.130Z,99888.00
2018-06-30T07:04:59.465Z,99895.00
2018-06-30T07:07:28.909Z,99885.00
2018-06-30T07:09:58.475Z,99890.00
2018-06-30T07:12:27.957Z,99887.00
2018-06-30T07:14:57.629Z,99895.00
2018-06-30T07:17:27.111Z,99897.00
2018-06-30T07:19:56.165Z,99889.00
2018-06-30T07:22:25.653Z,99891.00
2018-06-30T07:24:55.888Z,99887.00
2018-06-30T07:27:25.169Z,99897.00
2018-06-30T07:29:54.258Z,99885.00
2018-06-30T07:32:24.198Z,99885.00
2018-06-30T07:34:53.584Z,99891.00
2018-06-30T07:37:22.749Z,99892.00
2018-06-30T07:39:52.078Z,99889.00
2018-06-30T07:42:21.591Z,99900.00
2018-06-30T07:44:51.066Z,99896.00
2018-06-30T07:47:20.872Z,99901.00
2018-06-30T07:49:50.923Z,99902.00
2018-06-30T07:52:20.549Z,99916.00
2018-06-30T07:54:50.118Z,99905.00
2018-06-30T07:57:19.587Z,99904.00
2018-06-30T07:59:49.981Z,99899.00
2018-06-30T08:02:19.401Z,99915.00
2018-06-30T08:04:48.891Z,99938.00
2018-06-30T08:07:18.334Z,99907.00
2018-06-30T08:09:47.681Z,99909.00
2018-06-30T08:12:17.103Z,99906.00
2018-06-30T08:14:46.580Z,99904.00
2018-06-30T08:17:15.953Z,99931.00
2018-06-30T08:19:45.384Z,99925.00
2018-06-30T08:22:14.906Z,99925.00
2018-06-30T08:24:44.377Z,99937.00
2018-06-30T08:27:13.927Z,99931.00
2018-06-30T08:29:43.994Z,99939.00
2018-06-30T08:32:13.346Z,99952.00
2018-06-30T08:34:42.792Z,99928.00
2018-06-30T08:37:12.296Z,99940.00
2018-06-30T08:39:41.705Z,99944.00
2018-06-30T08:42:11.163Z,99942.00
2018-06-30T08:44:40.609Z,99949.00
2018-06-30T08:47:09.964Z,99943.00
2018-06-30T08:49:39.435Z,99961.00
2018-06-30T08:52:09.053Z,99943.00
2018-06-30T08:54:39.193Z,99937.00
2018-06-30T08:57:08.648Z,99929.00
2018-06-30T08:59:38.133Z,99922.00
2018-06-30T09:02:08.525Z,99941.00
2018-06-30T09:04:37.931Z,99954.00
2018-06-30T09:07:07.463Z,99940.00
2018-06-30T09:09:36.661Z,99930.00
2018-06-30T09:12:06.129Z,99943.00
2018-06-30T09:14:36.239Z,99932.00
2018-06-30T09:17:05.661Z,99938.00
2018-06-30T09:19:35.153Z,99958.00
2018-06-30T09:22:04.593Z,99945.00
2018-06-30T09:24:34.031Z,99940.00
2018-06-30T09:27:03.527Z,99940.00
2018-06-30T09:29:32.991Z,99939.00
2018-06-30T09:32:02.569Z,99936.00
2018-06-30T09:34:31.929Z,99938.00
2018-06-30T09:37:02.027Z,99934.00
2018-06-30T09:39:32.180Z,99969.00
2018-06-30T09:42:01.239Z,99950.00
2018-06-30T09:44:30.904Z,99951.00
2018-06-30T09:47:00.222Z,99955.00
2018-06-30T09:49:29.686Z,99965.00
2018-06-30T09:51:59.090Z,99960.00
2018-06-30T09:54:28.617Z,99958.00
2018-06-30T09:56:58.038Z,99981.00
2018-06-30T09:59:27.447Z,99985.00
2018-06-30T10:01:56.801Z,99966.00
2018-06-30T10:04:26.123Z,99961.00
2018-06-30T10:06:55.717Z,99951.00
2018-06-30T10:09:25.293Z,99959.00
2018-06-30T10:11:54.655Z,99964.00
2018-06-30T10:14:24.030Z,99953.00
2018-06-30T10:16:53.490Z,99958.00
2018-06-30T10:19:22.951Z,99960.00
2018-06-30T10:21:52.401Z,99962.00
2018-06-30T10:24:22.026Z,99954.00
2018-06-30T10:26:51.401Z,99943.00
2018-06-30T10:29:20.782Z,99957.00
2018-06-30T10:31:50.202Z,99949.00
2018-06-30T10:34:19.583Z,99954.00
2018-06-30T10:36:48.973Z,99949.00
2018-06-30T10:39:18.481Z,99953.00
2018-06-30T10:41:47.883Z,99979.00
2018-06-30T10:44:17.272Z,99963.00
2018-06-30T10:46:46.636Z,99955.00
2018-06-30T10:49:16.022Z,99949.00
2018-06-30T10:51:45.411Z,99948.00
2018-06-30T10:54:14.782Z,99942.00
2018-06-30T10:56:44.179Z,99949.00
2018-06-30T10:59:13.597Z,99945.00
2018-06-30T11:01:42.971Z,99946.00
2018-06-30T11:04:12.569Z,99968.00
2018-06-30T11:06:41.952Z,99942.00
2018-06-30T11:09:12.497Z,99952.00
2018-06-30T11:11:41.862Z,99946.00
2018-06-30T11:14:11.225Z,99931.00
2018-06-30T11:16:40.723Z,99941.00
2018-06-30T11:19:10.098Z,99947.00
2018-06-30T11:21:39.476Z,99944.00
2018-06-30T11:24:08.892Z,99949.00
2018-06-30T11:26:38.254Z,99937.00
2018-06-30T11:29:07.675Z,99940.00
2018-06-30T11:31:37.061Z,99935.00
2018-06-30T11:34:06.502Z,99939.00
2018-06-30T11:36:36.034Z,99928.00
2018-06-30T11:39:08.802Z,99926.00
2018-06-30T11:41:38.350Z,99930.00
2018-06-30T11:44:07.899Z,99933.00
2018-06-30T11:46:37.349Z,99924.00
2018-06-30T11:49:07.296Z,99912.00
2018-06-30T11:51:36.994Z,99934.00
2018-06-30T11:54:06.870Z,99924.00
2018-06-30T11:56:36.300Z,99913.00
2018-06-30T11:59:05.401Z,99923.00
2018-06-30T12:01:34.951Z,99927.00
2018-06-30T12:04:04.521Z,99924.00
2018-06-30T12:06:33.897Z,99921.00
2018-06-30T12:09:03.748Z,99923.00
2018-06-30T12:11:33.206Z,99939.00
2018-06-30T12:14:03.212Z,99919.00
2018-06-30T12:16:32.785Z,99931.00
2018-06-30T12:19:02.226Z,99924.00
2018-06-30T12:21:31.629Z,99921.00
2018-06-30T12:24:01.208Z,99922.00
2018-06-30T12:26:30.611Z,99926.00
2018-06-30T12:29:00.013Z,99917.00
2018-06-30T12:31:29.440Z,99926.00
2018-06-30T12:33:58.954Z,99915.00
2018-06-30T12:36:28.450Z,99937.00
2018-06-30T12:38:57.989Z,99927.00
2018-06-30T12:41:27.466Z,99910.00
2018-06-30T12:43:56.985Z,99901.00
2018-06-30T12:46:26.443Z,99903.00
2018-06-30T12:48:55.933Z,99898.00
2018-06-30T12:51:25.343Z,99926.00
2018-06-30T12:53:54.796Z,99908.00
2018-06-30T12:56:24.283Z,99909.00
2018-06-30T12:58:53.719Z,99915.00
2018-06-30T13:01:23.305Z,99906.00
2018-06-30T13:03:52.743Z,99886.00
2018-06-30T13:06:22.168Z,99893.00
2018-06-30T13:08:51.662Z,99891.00
2018-06-30T13:11:21.149Z,99906.00
2018-06-30T13:13:50.617Z,99899.00
2018-06-30T13:16:20.002Z,99889.00
2018-06-30T13:18:49.427Z,99888.00
2018-06-30T13:21:18.907Z,99896.00
2018-06-30T13:23:48.326Z,99905.00
2018-06-30T13:26:17.820Z,99913.00
2018-06-30T13:28:46.965Z,99898.00
2018-06-30T13:31:16.336Z,99904.00
2018-06-30T13:33:45.755Z,99908.00
2018-06-30T13:36:15.335Z,99903.00
2018-06-30T13:38:44.778Z,99902.00
2018-06-30T13:41:14.222Z,99899.00
2018-06-30T13:43:43.764Z,99902.00
2018-06-30T13:46:13.211Z,99896.00
2018-06-30T13:48:42.705Z,99872.00
2018-06-30T13:51:12.140Z,99887.00
2018-06-30T13:53:41.611Z,99899.00
2018-06-30T13:56:11.068Z,99893.00
2018-06-30T13:58:40.514Z,99897.00
2018-06-30T14:01:09.986Z,99895.00
2018-06-30T14:03:39.370Z,99908.00
2018-06-30T14:06:08.858Z,99904.00
2018-06-30T14:08:38.318Z,99895.00
2018-06-30T14:11:07.776Z,99903.00
2018-06-30T14:13:37.157Z,99892.00
2018-06-30T14:16:06.846Z,99898.00
2018-06-30T14:18:36.333Z,99888.00
2018-06-30T14:21:05.809Z,99882.00
2018-06-30T14:23:35.190Z,99890.00
2018-06-30T14:26:04.670Z,99886.00
2018-06-30T14:28:34.113Z,99897.00
2018-06-30T14:31:03.703Z,99892.00
2018-06-30T14:33:32.806Z,99895.00
2018-06-30T14:36:02.320Z,99897.00
2018-06-30T14:38:31.904Z,99890.00
2018-06-30T14:41:01.262Z,99887.00
2018-06-30T14:43:30.657Z,99892.00
2018-06-30T14:46:00.041Z,99883.00
2018-06-30T14:48:29.415Z,99879.00
2018-06-30T14:50:58.822Z,99894.00
2018-06-30T14:53:28.350Z,99901.00
2018-06-30T14:55:57.775Z,99884.00
2018-06-30T14:58:27.855Z,99891.00
2018-06-30T15:00:57.429Z,99878.00
2018-06-30T15:03:26.884Z,99890.00
2018-06-30T15:05:56.292Z,99880.00
2018-06-30T15:08:25.715Z,99868.00
2018-06-30T15:10:55.144Z,99866.00
2018-06-30T15:13:24.550Z,99861.00
2018-06-30T15:15:53.766Z,99870.00
2018-06-30T15:18:23.280Z,99860.00
2018-06-30T15:20:52.746Z,99875.00
2018-06-30T15:23:28.462Z,99872.00
2018-06-30T15:25:57.909Z,99873.00
2018-06-30T15:28:27.273Z,99870.00
2018-06-30T15:30:56.686Z,99883.00
2018-06-30T15:33:26.133Z,99868.00
2018-06-30T15:35:55.572Z,99866.00
2018-06-30T15:38:24.999Z,99872.00
2018-06-30T15:40:54.393Z,99875.00
2018-06-30T15:43:23.988Z,99881.00
2018-06-30T15:45:53.369Z,99879.00
2018-06-30T15:48:22.792Z,99884.00
2018-06-30T15:50:52.262Z,99891.00
2018-06-30T15:53:21.665Z,99889.00
2018-06-30T15:55:51.073Z,99886.00
2018-06-30T15:58:20.589Z,99881.00
2018-06-30T16:00:50.012Z,99890.00
2018-06-30T16:03:19.071Z,99875.00
2018-06-30T16:05:48.597Z,99880.00
2018-06-30T16:08:18.068Z,99890.00
2018-06-30T16:10:47.483Z,99888.00
2018-06-30T16:13:16.911Z,99893.00
2018-06-30T16:15:46.485Z,99895.00
2018-06-30T16:18:15.885Z,99881.00
2018-06-30T16:20:45.341Z,99895.00
2018-06-30T16:23:14.733Z,99882.00
2018-06-30T16:25:44.151Z,99872.00
2018-06-30T16:28:13.601Z,99888.00
2018-06-30T16:30:43.135Z,99882.00
2018-06-30T16:33:12.592Z,99883.00
2018-06-30T16:35:42.084Z,99873.00
2018-06-30T16:38:11.462Z,99877.00
2018-06-30T16:40:40.878Z,99880.00
2018-06-30T16:43:10.215Z,99864.00
2018-06-30T16:45:39.617Z,99876.00
2018-06-30T16:48:09.082Z,99876.00
2018-06-30T16:50:38.492Z,99866.00
2018-06-30T16:53:07.960Z,99866.00
2018-06-30T16:55:37.354Z,99871.00
2018-06-30T16:58:06.796Z,99879.00
2018-06-30T17:00:37.324Z,99892.00
2018-06-30T17:03:08.063Z,99879.00
2018-06-30T17:05:37.803Z,99880.00
2018-06-30T17:08:07.277Z,99874.00
2018-06-30T17:10:36.646Z,99871.00
2018-06-30T17:13:06.077Z,99877.00
2018-06-30T17:15:35.453Z,99873.00
2018-06-30T17:18:04.878Z,99875.00
2018-06-30T17:20:34.358Z,99872.00
2018-06-30T17:23:03.754Z,99871.00
2018-06-30T17:25:33.249Z,99877.00
2018-06-30T17:28:02.634Z,99868.00
2018-06-30T17:30:32.097Z,99867.00
2018-06-30T17:33:01.485Z,99870.00
2018-06-30T17:35:31.555Z,99867.00
2018-06-30T17:38:00.954Z,99873.00
2018-06-30T17:40:30.352Z,99875.00
2018-06-30T17:42:59.791Z,99874.00
2018-06-30T17:45:29.217Z,99881.00
2018-06-30T17:47:58.664Z,99879.00
2018-06-30T17:50:28.095Z,99881.00
2018-06-30T17:52:57.651Z,99871.00
2018-06-30T17:55:27.031Z,99885.00
2018-06-30T17:57:56.453Z,99883.00
2018-06-30T18:00:25.843Z,99877.00
2018-06-30T18:02:55.269Z,99882.00
2018-06-30T18:05:24.694Z,99883.00
2018-06-30T18:07:54.191Z,99884.00
2018-06-30T18:10:23.731Z,99885.00
2018-06-30T18:12:53.099Z,99884.00
2018-06-30T18:15:22.546Z,99885.00
2018-06-30T18:17:51.955Z,99881.00
2018-06-30T18:20:21.401Z,99893.00
2018-06-30T18:22:50.834Z,99891.00
2018-06-30T18:25:20.210Z,99889.00
2018-06-30T18:27:49.548Z,99886.00
2018-06-30T18:30:18.994Z,99892.00
2018-06-30T18:32:48.397Z,99894.00
2018-06-30T18:35:17.746Z,99890.00
2018-06-30T18:37:47.133Z,99892.00
2018-06-30T18:40:16.532Z,99892.00
2018-06-30T18:42:45.915Z,99891.00
2018-06-30T18:45:15.349Z,99890.00
2018-06-30T18:47:44.774Z,99885.00
2018-06-30T18:50:14.145Z,99892.00
2018-06-30T18:52:43.642Z,99899.00
2018-06-30T18:55:13.054Z,99893.00
2018-06-30T18:57:42.489Z,99901.00
2018-06-30T19:00:11.959Z,99903.00
2018-06-30T19:02:41.360Z,99897.00
2018-06-30T19:05:10.804Z,99904.00
2018-06-30T19:07:40.206Z,99910.00
2018-06-30T19:10:09.745Z,99911.00
2018-06-30T19:12:39.091Z,99912.00
2018-06-30T19:15:08.534Z,99911.00
2018-06-30T19:17:37.623Z,99922.00
2018-06-30T19:20:07.149Z,99924.00
2018-06-30T19:22:36.599Z,99925.00
2018-06-30T19:25:06.297Z,99924.00
2018-06-30T19:27:35.742Z,99930.00
2018-06-30T19:30:05.632Z,99920.00
2018-06-30T19:32:35.018Z,99924.00
2018-06-30T19:35:04.496Z,99929.00
2018-06-30T19:37:33.913Z,99933.00
2018-06-30T19:40:03.392Z,99939.00
2018-06-30T19:42:32.817Z,99923.00
2018-06-30T19:45:02.191Z,99931.00
2018-06-30T19:47:31.615Z,99930.00
2018-06-30T19:50:01.006Z,99936.00
2018-06-30T19:52:30.415Z,99930.00
2018-06-30T19:54:59.786Z,99928.00
2018-06-30T19:57:29.265Z,99933.00
2018-06-30T19:59:58.736Z,99932.00
2018-06-30T20:02:28.148Z,99937.00
2018-06-30T20:04:57.586Z,99933.00
2018-06-30T20:07:27.095Z,99937.00
2018-06-30T20:09:56.543Z,99937.00
2018-06-30T20:12:25.957Z,99940.00
2018-06-30T20:14:55.375Z,99945.00
2018-06-30T20:17:24.758Z,99944.00
2018-06-30T20:19:54.142Z,99942.00
2018-06-30T20:22:23.500Z,99944.00
2018-06-30T20:24:52.923Z,99940.00
2018-06-30T20:27:22.354Z,99952.00
2018-06-30T20:29:51.401Z,99952.00
2018-06-30T20:32:20.855Z,99947.00
2018-06-30T20:34:50.269Z,99953.00
2018-06-30T20:37:19.631Z,99951.00
2018-06-30T20:39:49.089Z,99953.00
2018-06-30T20:42:18.568Z,99950.00
2018-06-30T20:44:47.985Z,99956.00
2018-06-30T20:47:17.538Z,99958.00
2018-06-30T20:49:46.925Z,99953.00
2018-06-30T20:52:16.339Z,99961.00
2018-06-30T20:54:45.747Z,99963.00
2018-06-30T20:57:15.287Z,99965.00
2018-06-30T20:59:44.699Z,99968.00
2018-06-30T21:02:14.066Z,99973.00
2018-06-30T21:04:43.588Z,99978.00
2018-06-30T21:07:13.012Z,99976.00
2018-06-30T21:09:42.427Z,99980.00
2018-06-30T21:12:11.792Z,99983.00
2018-06-30T21:14:41.201Z,99979.00
2018-06-30T21:17:10.588Z,99978.00
2018-06-30T21:19:39.989Z,99984.00
2018-06-30T21:22:09.417Z,99979.00
2018-06-30T21:24:38.605Z,99976.00
2018-06-30T21:27:08.237Z,99983.00
2018-06-30T21:29:37.626Z,99987.00
2018-06-30T21:32:06.992Z,99987.00
2018-06-30T21:34:36.430Z,99984.00
2018-06-30T21:37:05.947Z,99983.00
2018-06-30T21:39:35.023Z,99980.00
2018-06-30T21:42:04.390Z,99983.00
2018-06-30T21:44:33.728Z,99987.00
2018-06-30T21:47:03.073Z,99983.00
2018-06-30T21:49:32.496Z,99992.00
2018-06-30T21:52:01.882Z,99992.00
2018-06-30T21:54:31.260Z,99989.00
2018-06-30T21:57:00.683Z,99986.00
2018-06-30T21:59:30.067Z,99985.00
2018-06-30T22:01:59.506Z,99991.00
2018-06-30T22:04:28.950Z,99985.00
2018-06-30T22:06:58.418Z,99985.00
2018-06-30T22:09:27.814Z,99986.00
2018-06-30T22:11:57.198Z,99992.00
2018-06-30T22:14:26.769Z,99995.00
2018-06-30T22:16:56.194Z,99985.00
2018-06-30T22:19:25.614Z,99992.00
2018-06-30T22:21:55.113Z,99987.00
2018-06-30T22:24:24.596Z,99991.00
2018-06-30T22:26:54.240Z,99991.00
2018-06-30T22:29:23.673Z,99990.00
2018-06-30T22:31:53.053Z,99996.00
2018-06-30T22:34:22.429Z,100004.00
2018-06-30T22:36:51.818Z,99992.00
2018-06-30T22:40:41.549Z,99992.00
2018-06-30T22:43:10.968Z,99987.00
2018-06-30T22:45:40.350Z,99995.00
2018-06-30T22:48:09.759Z,99992.00
2018-06-30T22:50:39.145Z,99995.00
2018-06-30T22:53:08.565Z,100000.00
2018-06-30T22:55:37.962Z,99993.00
2018-06-30T22:58:07.355Z,99998.00
2018-06-30T23:00:36.729Z,100003.00
2018-06-30T23:03:11.847Z,100000.00
2018-06-30T23:05:42.292Z,100004.00
2018-06-30T23:08:11.773Z,100005.00
2018-06-30T23:10:41.187Z,100008.00
2018-06-30T23:13:10.588Z,100012.00
2018-06-30T23:15:40.121Z,100019.00
2018-06-30T23:18:09.590Z,100017.00
2018-06-30T23:20:39.011Z,100018.00
2018-06-30T23:23:09.580Z,100020.00
2018-06-30T23:25:39.971Z,100018.00
2018-06-30T23:28:09.668Z,100019.00
2018-06-30T23:30:39.134Z,100025.00
2018-06-30T23:33:08.552Z,100032.00
2018-06-30T23:35:37.945Z,100027.00
2018-06-30T23:38:07.443Z,100022.00
2018-06-30T23:40:36.866Z,100030.00
2018-06-30T23:43:06.357Z,100022.00
2018-06-30T23:45:35.789Z,100027.00
2018-06-30T23:50:31.001Z,100034.00
2018-06-30T23:53:00.368Z,100025.00
2018-06-30T23:55:29.869Z,100042.00
2018-06-30T23:57:59.267Z,100028.00
